Mahanoy Plane, Pennsylvania
Current Conditions -  °F | °C
As of 7:15 PM on Wednesday 28 Jan 2015 (Local Time) from KHZL Reporting Station
Clear Clear  
Wind Chill: 16°   Ceiling: Unl
Heat Index: 25°   Visibility: 10mi
Dew Point:   Wind: 8mph
Humidity: 34%   Direction: 310°NW
Pressure: 30.22"   Gusts: 18mph
Location:  40.79°N, 76.24°W
Report Text: KHZL 290015Z AUTO 31007G16KT 10SM CLR M04/M18 A3022 RMK AO2
Loading
Personal Weather Stations






























Interactive Weather Map New forecast layout! Learn more

10-Day Weather Forecast

Advertisements
Track Severe Weather on mobile